Time;durP1;ratioP1;P1;durP2;ratioP2;P2;SDS_P1;SDS_P2;PMS_P1;PMS_P2;Temp;Humidity;BMP_temperature;BMP_pressure;BME280_temperature;BME280_humidity;BME280_pressure;Samples;Min_cycle;Max_cycle;Signal;HPM_P1;HPM_P2
2022/01/13 00:00:50;;;;;;;17.23;15.43;;;;;;;;;;5055692;28;20033;-56
2022/01/13 00:03:16;;;;;;;20.37;17.47;;;;;;;;;;5037949;28;20083;-55
2022/01/13 00:05:42;;;;;;;22.23;18.30;;;;;;;;;;5035406;28;20039;-56
2022/01/13 00:08:08;;;;;;;22.03;18.57;;;;;;;;;;5034744;28;20438;-53
2022/01/13 00:10:34;;;;;;;23.93;17.73;;;;;;;;;;5035109;28;20026;-56
2022/01/13 00:13:07;;;;;;;23.97;20.67;;;;;;;;;;5035065;28;20091;-55
2022/01/13 00:15:49;;;;;;;23.53;20.27;;;;;;;;;;5035302;28;20022;-56
2022/01/13 00:18:18;;;;;;;23.37;20.67;;;;;;;;;;5034490;28;20475;-52
2022/01/13 00:26:01;;;;;;;20.03;17.87;;;;;;;;;;5035311;28;20383;-56
2022/01/13 00:28:27;;;;;;;25.37;20.10;;;;;;;;;;5034312;28;20448;-57
2022/01/13 00:30:55;;;;;;;24.93;18.90;;;;;;;;;;5035291;28;20025;-55
2022/01/13 00:33:24;;;;;;;24.17;19.20;;;;;;;;;;5034854;28;20136;-55
2022/01/13 00:35:51;;;;;;;17.73;15.50;;;;;;;;;;5034882;28;20045;-55
2022/01/13 00:38:17;;;;;;;19.80;17.67;;;;;;;;;;5049644;28;20063;-57
2022/01/13 00:40:43;;;;;;;26.27;19.33;;;;;;;;;;5054477;28;20459;-55
2022/01/13 00:43:09;;;;;;;23.23;19.13;;;;;;;;;;5054510;28;20021;-53
2022/01/13 00:45:35;;;;;;;20.53;18.27;;;;;;;;;;5054470;28;20025;-53
2022/01/13 00:48:01;;;;;;;24.27;19.33;;;;;;;;;;5054171;28;20475;-54
2022/01/13 00:50:27;;;;;;;24.47;17.53;;;;;;;;;;5054517;28;20347;-55
2022/01/13 00:52:53;;;;;;;26.40;21.00;;;;;;;;;;5054551;28;20386;-54
2022/01/13 00:55:22;;;;;;;24.43;19.33;;;;;;;;;;5054443;28;20075;-54
2022/01/13 00:57:48;;;;;;;25.43;19.37;;;;;;;;;;5054032;28;20033;-56
2022/01/13 01:00:15;;;;;;;23.20;18.37;;;;;;;;;;5052676;28;20017;-56
2022/01/13 01:02:41;;;;;;;35.60;19.87;;;;;;;;;;5041627;28;20033;-54
2022/01/13 01:05:07;;;;;;;25.30;18.70;;;;;;;;;;5034554;28;20025;-56
2022/01/13 01:07:35;;;;;;;23.67;19.27;;;;;;;;;;5034273;28;20029;-56
2022/01/13 01:10:02;;;;;;;20.90;18.30;;;;;;;;;;5033598;28;20053;-56
2022/01/13 01:12:30;;;;;;;20.17;17.33;;;;;;;;;;5034035;28;20035;-55
2022/01/13 01:14:58;;;;;;;21.00;16.50;;;;;;;;;;5034036;28;20030;-55
2022/01/13 01:17:24;;;;;;;21.63;17.73;;;;;;;;;;5033882;28;20443;-57
2022/01/13 01:19:51;;;;;;;23.93;18.93;;;;;;;;;;5033410;28;20037;-57
2022/01/13 01:25:18;;;;;;;21.93;19.57;;;;;;;;;;5034054;28;20736;-56
2022/01/13 01:27:49;;;;;;;22.07;18.27;;;;;;;;;;5033380;28;20395;-55
2022/01/13 01:30:27;;;;;;;19.13;16.20;;;;;;;;;;5033987;28;20025;-56
2022/01/13 01:32:54;;;;;;;20.17;17.00;;;;;;;;;;5033881;28;20030;-57
2022/01/13 01:35:24;;;;;;;20.43;17.50;;;;;;;;;;5034034;28;20037;-54
2022/01/13 01:37:50;;;;;;;24.15;15.77;;;;;;;;;;5044745;28;20044;-52
2022/01/13 01:40:16;;;;;;;26.50;18.63;;;;;;;;;;5053407;28;20024;-55
2022/01/13 01:42:42;;;;;;;19.53;17.43;;;;;;;;;;5053356;28;20039;-57
2022/01/13 01:45:09;;;;;;;21.90;19.60;;;;;;;;;;5053373;28;20084;-54
2022/01/13 01:47:35;;;;;;;23.93;19.30;;;;;;;;;;5053592;28;20025;-54
2022/01/13 01:50:10;;;;;;;24.50;19.93;;;;;;;;;;5052762;28;20029;-55
2022/01/13 01:52:36;;;;;;;20.13;16.97;;;;;;;;;;5053182;28;20033;-56
2022/01/13 01:55:02;;;;;;;25.87;18.17;;;;;;;;;;5053355;28;20116;-56
2022/01/13 01:57:28;;;;;;;23.23;18.07;;;;;;;;;;5053234;28;20394;-54
2022/01/13 01:59:55;;;;;;;26.63;18.17;;;;;;;;;;5052480;28;20100;-54
2022/01/13 02:02:22;;;;;;;19.90;17.80;;;;;;;;;;5043248;28;20048;-56
2022/01/13 02:04:48;;;;;;;23.77;16.73;;;;;;;;;;5033102;28;20430;-56
2022/01/13 02:07:15;;;;;;;21.70;18.13;;;;;;;;;;5032998;28;20022;-53
2022/01/13 02:09:43;;;;;;;21.03;17.90;;;;;;;;;;5032244;28;20025;-55
2022/01/13 02:12:14;;;;;;;23.77;18.00;;;;;;;;;;5032654;28;20172;-55
2022/01/13 02:14:59;;;;;;;19.20;14.90;;;;;;;;;;5033463;28;20025;-56
2022/01/13 02:17:28;;;;;;;19.70;15.83;;;;;;;;;;5032909;28;20302;-55
2022/01/13 02:19:55;;;;;;;25.67;19.40;;;;;;;;;;5032094;28;20044;-56
2022/01/13 02:22:22;;;;;;;20.63;18.13;;;;;;;;;;5032971;28;20269;-56
2022/01/13 02:24:48;;;;;;;21.50;17.80;;;;;;;;;;5032920;28;20036;-57
2022/01/13 02:27:14;;;;;;;26.83;15.87;;;;;;;;;;5032797;28;20471;-53
2022/01/13 02:29:40;;;;;;;22.60;18.93;;;;;;;;;;5031979;28;20025;-56
2022/01/13 02:32:07;;;;;;;23.80;18.13;;;;;;;;;;5032530;28;20025;-53
2022/01/13 02:34:33;;;;;;;21.23;15.77;;;;;;;;;;5032487;28;20120;-53
2022/01/13 02:36:59;;;;;;;19.47;17.03;;;;;;;;;;5037206;28;20390;-54
2022/01/13 02:39:27;;;;;;;21.80;18.17;;;;;;;;;;5051912;28;20044;-56
2022/01/13 02:41:53;;;;;;;22.13;17.90;;;;;;;;;;5052148;28;20490;-53
2022/01/13 02:44:22;;;;;;;20.50;16.60;;;;;;;;;;5052338;28;20051;-54
2022/01/13 02:49:15;;;;;;;17.13;14.97;;;;;;;;;;5051952;28;20495;-55
2022/01/13 02:51:42;;;;;;;18.40;16.20;;;;;;;;;;5052575;28;20079;-55
2022/01/13 02:54:08;;;;;;;17.80;15.67;;;;;;;;;;5052490;28;20035;-56
2022/01/13 02:56:36;;;;;;;23.03;17.20;;;;;;;;;;5052363;28;20086;-56
2022/01/13 02:59:02;;;;;;;21.50;16.33;;;;;;;;;;5051463;28;20040;-55
2022/01/13 03:01:28;;;;;;;16.47;14.73;;;;;;;;;;5049341;28;20020;-55
2022/01/13 03:03:54;;;;;;;19.20;16.27;;;;;;;;;;5032355;28;20030;-53
2022/01/13 03:06:24;;;;;;;20.20;16.47;;;;;;;;;;5032400;28;20071;-55
2022/01/13 03:08:50;;;;;;;15.98;13.23;;;;;;;;;;5031751;28;20418;-54
2022/01/13 03:11:17;;;;;;;19.53;15.13;;;;;;;;;;5031864;28;20030;-52
2022/01/13 03:13:43;;;;;;;24.87;17.63;;;;;;;;;;5031141;28;20032;-55
2022/01/13 03:16:10;;;;;;;24.43;17.13;;;;;;;;;;5031842;28;20025;-52
2022/01/13 03:18:36;;;;;;;17.00;13.77;;;;;;;;;;5031592;28;20171;-54
2022/01/13 03:21:03;;;;;;;21.27;15.53;;;;;;;;;;5032168;28;20033;-51
2022/01/13 03:23:29;;;;;;;20.70;15.30;;;;;;;;;;5034309;28;20026;-56
2022/01/13 03:25:55;;;;;;;20.40;15.70;;;;;;;;;;5036099;28;20029;-52
2022/01/13 03:28:37;;;;;;;21.93;16.73;;;;;;;;;;5035438;28;20033;-52
2022/01/13 03:31:04;;;;;;;16.97;13.17;;;;;;;;;;5035990;28;20036;-53
2022/01/13 03:33:30;;;;;;;19.07;14.07;;;;;;;;;;5036029;28;20032;-55
2022/01/13 03:35:56;;;;;;;20.37;15.80;;;;;;;;;;5036013;28;20033;-55
2022/01/13 03:38:22;;;;;;;18.33;15.20;;;;;;;;;;5051229;28;20131;-55
2022/01/13 03:40:49;;;;;;;16.60;14.77;;;;;;;;;;5056291;28;20032;-56
2022/01/13 03:43:16;;;;;;;19.97;15.50;;;;;;;;;;5055323;28;20370;-55
2022/01/13 03:45:42;;;;;;;19.47;16.17;;;;;;;;;;5055774;28;20059;-55
2022/01/13 03:48:09;;;;;;;20.03;18.07;;;;;;;;;;5054948;28;20033;-55
2022/01/13 03:50:35;;;;;;;19.97;14.67;;;;;;;;;;5055489;28;20528;-56
2022/01/13 03:53:01;;;;;;;21.47;16.97;;;;;;;;;;5055352;28;20213;-51
2022/01/13 03:55:50;;;;;;;16.73;15.00;;;;;;;;;;5055496;28;20032;-56
2022/01/13 03:58:16;;;;;;;20.10;14.43;;;;;;;;;;5054462;28;20033;-56
2022/01/13 04:00:56;;;;;;;18.33;15.33;;;;;;;;;;5055475;28;20087;-54
2022/01/13 04:03:22;;;;;;;22.90;16.33;;;;;;;;;;5037139;28;20484;-52
2022/01/13 04:06:03;;;;;;;23.23;15.53;;;;;;;;;;5035374;28;20095;-57
2022/01/13 04:08:30;;;;;;;19.23;14.33;;;;;;;;;;5034900;28;20463;-53
2022/01/13 04:10:58;;;;;;;17.87;15.47;;;;;;;;;;5035488;28;20053;-55
2022/01/13 04:16:09;;;;;;;18.87;16.43;;;;;;;;;;5035416;28;20064;-57
2022/01/13 04:18:35;;;;;;;24.37;17.43;;;;;;;;;;5034223;28;20117;-57
2022/01/13 04:21:01;;;;;;;20.50;15.33;;;;;;;;;;5035112;28;20117;-57
2022/01/13 04:23:27;;;;;;;22.67;17.93;;;;;;;;;;5034926;28;20034;-57
2022/01/13 04:25:53;;;;;;;18.67;16.07;;;;;;;;;;5035425;28;20041;-57
2022/01/13 04:28:26;;;;;;;18.07;15.33;;;;;;;;;;5034306;28;20037;-57
2022/01/13 04:31:00;;;;;;;19.20;15.83;;;;;;;;;;5030376;28;20044;-55
2022/01/13 04:33:26;;;;;;;16.73;14.83;;;;;;;;;;5034761;28;20200;-54
2022/01/13 04:35:52;;;;;;;22.07;16.60;;;;;;;;;;5035233;28;20174;-51
2022/01/13 04:38:18;;;;;;;21.90;15.93;;;;;;;;;;5049622;28;20037;-50
2022/01/13 04:40:46;;;;;;;22.97;18.33;;;;;;;;;;5054725;28;20121;-56
2022/01/13 04:43:12;;;;;;;17.73;15.90;;;;;;;;;;5053819;28;20156;-56
2022/01/13 04:45:39;;;;;;;17.40;14.40;;;;;;;;;;5054449;28;20386;-51
2022/01/13 04:48:05;;;;;;;20.80;16.10;;;;;;;;;;5053999;28;20051;-55
2022/01/13 04:50:31;;;;;;;21.97;16.57;;;;;;;;;;5054741;28;20052;-56
2022/01/13 04:52:57;;;;;;;20.33;16.83;;;;;;;;;;5054303;28;20032;-56
2022/01/13 04:55:29;;;;;;;15.87;14.17;;;;;;;;;;5054844;28;20021;-55
2022/01/13 04:57:55;;;;;;;16.93;15.13;;;;;;;;;;5053764;28;20055;-51
2022/01/13 05:00:22;;;;;;;17.97;16.03;;;;;;;;;;5053714;28;20107;-56
2022/01/13 05:02:48;;;;;;;23.13;16.47;;;;;;;;;;5053948;28;20448;-56
2022/01/13 05:05:14;;;;;;;17.70;15.57;;;;;;;;;;5054757;28;20477;-57
2022/01/13 05:07:41;;;;;;;19.23;16.43;;;;;;;;;;5054205;28;20111;-55
2022/01/13 05:10:07;;;;;;;18.03;15.73;;;;;;;;;;5053410;28;20021;-56
2022/01/13 05:12:40;;;;;;;16.57;14.80;;;;;;;;;;5054191;28;20536;-53
2022/01/13 05:15:08;;;;;;;17.40;14.10;;;;;;;;;;5054195;28;20033;-57
2022/01/13 05:20:23;;;;;;;19.70;15.23;;;;;;;;;;5042519;28;20103;-55
2022/01/13 05:22:50;;;;;;;16.40;14.47;;;;;;;;;;5053570;28;20029;-53
2022/01/13 05:25:17;;;;;;;22.77;16.53;;;;;;;;;;5053233;28;20032;-56
2022/01/13 05:27:43;;;;;;;17.13;15.07;;;;;;;;;;5053275;28;20375;-55
2022/01/13 05:30:09;;;;;;;18.30;16.13;;;;;;;;;;5053254;28;20028;-55
2022/01/13 05:32:35;;;;;;;21.67;17.30;;;;;;;;;;5053021;28;20060;-53
2022/01/13 05:35:01;;;;;;;18.93;14.63;;;;;;;;;;5053552;28;20146;-56
2022/01/13 05:37:27;;;;;;;22.93;15.03;;;;;;;;;;5052745;28;20044;-56
2022/01/13 05:39:53;;;;;;;21.97;18.33;;;;;;;;;;5050366;28;20040;-57
2022/01/13 05:42:19;;;;;;;22.87;16.50;;;;;;;;;;5052512;28;20025;-53
2022/01/13 05:44:46;;;;;;;20.83;15.27;;;;;;;;;;5053027;28;20471;-54
2022/01/13 05:47:13;;;;;;;18.27;15.47;;;;;;;;;;5052511;28;20060;-56
2022/01/13 05:49:40;;;;;;;19.80;16.97;;;;;;;;;;5051999;28;20486;-57
2022/01/13 05:52:07;;;;;;;19.37;15.23;;;;;;;;;;5051198;28;20030;-56
2022/01/13 05:54:33;;;;;;;15.97;14.33;;;;;;;;;;5052267;28;20048;-52
2022/01/13 05:56:59;;;;;;;22.27;16.37;;;;;;;;;;5052418;28;20029;-54
2022/01/13 05:59:25;;;;;;;16.07;13.80;;;;;;;;;;5051837;28;20041;-56
2022/01/13 06:01:51;;;;;;;14.13;12.50;;;;;;;;;;5047136;28;20030;-56
2022/01/13 06:04:17;;;;;;;21.00;16.33;;;;;;;;;;5042366;28;20021;-56
2022/01/13 06:06:43;;;;;;;18.77;16.40;;;;;;;;;;5052793;28;20471;-54
2022/01/13 06:09:09;;;;;;;21.10;15.43;;;;;;;;;;5051969;28;20498;-55
2022/01/13 06:11:42;;;;;;;21.33;16.50;;;;;;;;;;5052232;28;20387;-55
2022/01/13 06:14:08;;;;;;;21.43;16.40;;;;;;;;;;5047864;28;20387;-55
2022/01/13 06:16:34;;;;;;;20.30;15.93;;;;;;;;;;5052059;28;20029;-55
2022/01/13 06:19:01;;;;;;;18.97;17.00;;;;;;;;;;5051169;28;20037;-57
2022/01/13 06:21:27;;;;;;;17.80;15.47;;;;;;;;;;5052424;28;20135;-56
2022/01/13 06:23:52;;;;;;;21.23;15.67;;;;;;;;;;5052497;28;20065;-54
2022/01/13 06:26:19;;;;;;;20.40;15.57;;;;;;;;;;5052881;28;20111;-54
2022/01/13 06:28:45;;;;;;;19.20;16.00;;;;;;;;;;5051732;28;20372;-55
2022/01/13 06:31:11;;;;;;;21.63;17.47;;;;;;;;;;5052671;28;20033;-57
2022/01/13 06:33:37;;;;;;;18.50;14.97;;;;;;;;;;5052181;28;20028;-56
2022/01/13 06:36:07;;;;;;;17.20;14.70;;;;;;;;;;5052073;28;20033;-55
2022/01/13 06:38:33;;;;;;;20.85;15.57;;;;;;;;;;5051870;28;20394;-57
2022/01/13 06:41:01;;;;;;;20.17;16.50;;;;;;;;;;5052245;28;20024;-55
2022/01/13 06:43:27;;;;;;;19.77;15.03;;;;;;;;;;5052489;28;20037;-54
2022/01/13 06:45:53;;;;;;;25.83;15.57;;;;;;;;;;5052503;28;20031;-52
2022/01/13 06:48:19;;;;;;;16.47;14.77;;;;;;;;;;5051734;28;20459;-54
2022/01/13 06:50:45;;;;;;;24.10;17.87;;;;;;;;;;5052300;28;20028;-54
2022/01/13 06:53:11;;;;;;;17.10;15.30;;;;;;;;;;5052581;28;20060;-52
2022/01/13 06:55:37;;;;;;;18.60;16.50;;;;;;;;;;5052253;28;20056;-52
2022/01/13 06:58:03;;;;;;;17.20;14.87;;;;;;;;;;5050818;28;20040;-52
2022/01/13 07:00:29;;;;;;;19.57;15.87;;;;;;;;;;5051706;28;20078;-55
2022/01/13 07:02:58;;;;;;;22.87;20.50;;;;;;;;;;5052007;28;20438;-53
2022/01/13 07:05:24;;;;;;;19.13;15.37;;;;;;;;;;5051762;28;20111;-56
2022/01/13 07:07:50;;;;;;;19.47;15.93;;;;;;;;;;5051476;28;20493;-56
2022/01/13 07:10:16;;;;;;;18.37;15.53;;;;;;;;;;5050801;28;20021;-57
2022/01/13 07:12:43;;;;;;;20.47;17.27;;;;;;;;;;5052008;28;20355;-51
2022/01/13 07:15:10;;;;;;;19.67;17.07;;;;;;;;;;5051547;28;20417;-57
2022/01/13 07:17:36;;;;;;;23.93;18.40;;;;;;;;;;5051980;28;20381;-52
2022/01/13 07:20:02;;;;;;;17.87;14.43;;;;;;;;;;5051431;28;20033;-52
2022/01/13 07:22:28;;;;;;;18.00;15.20;;;;;;;;;;5051546;28;20040;-56
2022/01/13 07:24:54;;;;;;;24.87;18.17;;;;;;;;;;5052107;28;20120;-56
2022/01/13 07:27:20;;;;;;;16.93;14.50;;;;;;;;;;5052015;28;20029;-55
2022/01/13 07:29:48;;;;;;;18.40;16.33;;;;;;;;;;5051295;28;20470;-56
2022/01/13 07:32:15;;;;;;;20.40;17.30;;;;;;;;;;5051627;28;20025;-55
2022/01/13 07:34:41;;;;;;;19.17;16.97;;;;;;;;;;5051669;28;20459;-54
2022/01/13 07:37:07;;;;;;;17.77;14.07;;;;;;;;;;5051488;28;20059;-56
2022/01/13 07:39:35;;;;;;;33.87;17.27;;;;;;;;;;5050867;28;20044;-56
2022/01/13 07:42:01;;;;;;;20.33;16.33;;;;;;;;;;5051695;28;20033;-57
2022/01/13 07:44:27;;;;;;;20.40;16.33;;;;;;;;;;5052152;28;20436;-55
2022/01/13 07:46:56;;;;;;;21.57;15.97;;;;;;;;;;5051922;28;20104;-57
2022/01/13 07:49:22;;;;;;;20.27;16.10;;;;;;;;;;5051117;28;20052;-56
2022/01/13 07:51:48;;;;;;;19.27;14.10;;;;;;;;;;5051300;28;20130;-55
2022/01/13 07:54:14;;;;;;;20.10;17.47;;;;;;;;;;5051871;28;20025;-55
2022/01/13 07:56:40;;;;;;;18.50;16.47;;;;;;;;;;5051769;28;20032;-56
2022/01/13 07:59:06;;;;;;;19.87;15.97;;;;;;;;;;5050899;28;20037;-57
2022/01/13 08:01:32;;;;;;;18.87;13.70;;;;;;;;;;5048258;28;20032;-56
2022/01/13 08:03:57;;;;;;;19.87;13.93;;;;;;;;;;5031810;28;20032;-57
2022/01/13 08:06:23;;;;;;;19.93;15.10;;;;;;;;;;5049331;28;20459;-57
2022/01/13 08:08:49;;;;;;;21.67;17.20;;;;;;;;;;5051739;28;20467;-56
2022/01/13 08:11:16;;;;;;;16.37;13.63;;;;;;;;;;5055434;28;20032;-56
2022/01/13 08:13:42;;;;;;;20.53;17.57;;;;;;;;;;5055088;28;20033;-57
2022/01/13 08:16:10;;;;;;;15.87;14.37;;;;;;;;;;5054969;28;20052;-57
2022/01/13 08:21:21;;;;;;;23.70;13.83;;;;;;;;;;5055621;28;20115;-57
2022/01/13 08:23:47;;;;;;;14.77;12.53;;;;;;;;;;5054648;28;20036;-55
2022/01/13 08:26:13;;;;;;;17.07;14.17;;;;;;;;;;5054694;28;20021;-54
2022/01/13 08:28:39;;;;;;;19.63;16.80;;;;;;;;;;5054833;28;20037;-54
2022/01/13 08:31:05;;;;;;;22.27;16.50;;;;;;;;;;5054778;28;20099;-52
2022/01/13 08:33:31;;;;;;;20.43;17.53;;;;;;;;;;5054930;28;20632;-55
2022/01/13 08:35:57;;;;;;;16.77;14.93;;;;;;;;;;5054867;28;20398;-54
2022/01/13 08:38:24;;;;;;;19.13;17.10;;;;;;;;;;5054067;28;20117;-55
2022/01/13 08:40:53;;;;;;;22.43;17.63;;;;;;;;;;5054481;28;20082;-54
2022/01/13 08:43:20;;;;;;;18.67;15.67;;;;;;;;;;5054556;28;20029;-54
2022/01/13 08:45:46;;;;;;;18.33;16.43;;;;;;;;;;5054367;28;20060;-53
2022/01/13 08:48:13;;;;;;;24.43;19.87;;;;;;;;;;5054070;28;20033;-52
2022/01/13 08:50:39;;;;;;;21.23;17.80;;;;;;;;;;5054547;28;20029;-54
2022/01/13 08:53:05;;;;;;;21.80;16.00;;;;;;;;;;5054466;28;20021;-51
2022/01/13 08:55:31;;;;;;;19.27;17.33;;;;;;;;;;5054283;28;20025;-55
2022/01/13 08:57:57;;;;;;;20.77;17.20;;;;;;;;;;5053638;28;20037;-57
2022/01/13 09:00:24;;;;;;;18.93;17.07;;;;;;;;;;5054238;28;20025;-56
2022/01/13 09:02:50;;;;;;;17.80;16.03;;;;;;;;;;5054243;28;20025;-56
2022/01/13 09:05:17;;;;;;;20.30;16.87;;;;;;;;;;5054228;28;20082;-56
2022/01/13 09:07:43;;;;;;;18.90;15.77;;;;;;;;;;5053912;28;20426;-57
2022/01/13 09:10:10;;;;;;;19.77;16.20;;;;;;;;;;5053546;28;20068;-56
2022/01/13 09:12:36;;;;;;;22.50;19.03;;;;;;;;;;5053531;28;20033;-57
2022/01/13 09:15:14;;;;;;;22.77;17.27;;;;;;;;;;5053583;28;20032;-55
2022/01/13 09:17:42;;;;;;;23.93;19.03;;;;;;;;;;5054181;28;20374;-54
2022/01/13 09:20:08;;;;;;;23.40;17.03;;;;;;;;;;5052317;28;20044;-51
2022/01/13 09:22:34;;;;;;;19.33;16.80;;;;;;;;;;5053350;28;20048;-54
2022/01/13 09:25:00;;;;;;;18.97;15.67;;;;;;;;;;5051874;28;20386;-54
2022/01/13 09:27:26;;;;;;;17.63;15.20;;;;;;;;;;5053956;28;20040;-55
2022/01/13 09:29:52;;;;;;;20.00;17.10;;;;;;;;;;5053506;28;20037;-56
2022/01/13 09:32:18;;;;;;;21.47;15.40;;;;;;;;;;5053593;28;20032;-57
2022/01/13 09:34:44;;;;;;;16.83;15.13;;;;;;;;;;5053851;28;20037;-57
2022/01/13 09:37:11;;;;;;;18.83;13.70;;;;;;;;;;5053405;28;20036;-56
2022/01/13 09:39:37;;;;;;;18.07;15.23;;;;;;;;;;5052542;28;20391;-56
2022/01/13 09:42:05;;;;;;;19.53;16.00;;;;;;;;;;5053187;28;20052;-55
2022/01/13 09:44:31;;;;;;;24.73;14.87;;;;;;;;;;5053521;28;20032;-56
2022/01/13 09:46:57;;;;;;;18.80;14.37;;;;;;;;;;5053269;28;20033;-55
2022/01/13 09:49:23;;;;;;;19.27;14.70;;;;;;;;;;5052691;28;20033;-57
2022/01/13 09:51:49;;;;;;;15.97;14.43;;;;;;;;;;5052903;28;20359;-56
2022/01/13 09:54:16;;;;;;;16.73;15.03;;;;;;;;;;5052830;28;20036;-55
2022/01/13 09:56:42;;;;;;;21.23;15.37;;;;;;;;;;5053164;28;20096;-57
2022/01/13 09:59:09;;;;;;;17.57;14.13;;;;;;;;;;5052552;28;20025;-54
2022/01/13 10:01:35;;;;;;;16.67;14.17;;;;;;;;;;5049303;28;20100;-55
2022/01/13 10:04:01;;;;;;;18.27;14.43;;;;;;;;;;5033146;28;20121;-55
2022/01/13 10:06:27;;;;;;;20.87;13.73;;;;;;;;;;5033017;28;20416;-56
2022/01/13 10:08:54;;;;;;;16.23;14.10;;;;;;;;;;5041077;28;20067;-55
2022/01/13 10:11:23;;;;;;;17.20;13.77;;;;;;;;;;5052982;28;20506;-55
2022/01/13 10:14:01;;;;;;;21.87;13.20;;;;;;;;;;5052722;28;20025;-56
2022/01/13 10:16:28;;;;;;;17.03;14.20;;;;;;;;;;5052712;28;20428;-55
2022/01/13 10:18:54;;;;;;;13.70;10.50;;;;;;;;;;5051895;28;20456;-57
2022/01/13 10:21:20;;;;;;;12.87;11.53;;;;;;;;;;5050470;28;20040;-56
2022/01/13 10:24:03;;;;;;;17.90;12.33;;;;;;;;;;5052181;28;20056;-55
2022/01/13 10:26:30;;;;;;;15.07;12.13;;;;;;;;;;5052563;28;20025;-57
2022/01/13 10:28:56;;;;;;;15.10;11.57;;;;;;;;;;5051769;28;20029;-56
2022/01/13 10:31:42;;;;;;;19.50;13.17;;;;;;;;;;5052100;28;20438;-54
2022/01/13 10:34:18;;;;;;;14.83;11.53;;;;;;;;;;5052668;28;20025;-57
2022/01/13 10:37:01;;;;;;;14.77;13.20;;;;;;;;;;5052547;28;20503;-55
2022/01/13 10:39:43;;;;;;;15.60;10.90;;;;;;;;;;5051951;28;20550;-57
2022/01/13 10:42:44;;;;;;;12.73;9.50;;;;;;;;;;5052585;28;20028;-52
2022/01/13 10:45:01;;;;;;;16.00;12.73;;;;;;;;;;5049169;28;20048;-56
2022/01/13 10:47:28;;;;;;;14.87;12.23;;;;;;;;;;5052320;28;20028;-55
2022/01/13 10:49:59;;;;;;;16.23;12.73;;;;;;;;;;5051672;28;20082;-56
2022/01/13 10:52:26;;;;;;;16.37;12.17;;;;;;;;;;5051922;28;20025;-56
2022/01/13 10:55:10;;;;;;;15.40;11.07;;;;;;;;;;5052201;28;20051;-57
2022/01/13 10:57:36;;;;;;;13.13;11.20;;;;;;;;;;5052348;28;20036;-57
2022/01/13 11:00:04;;;;;;;15.83;12.17;;;;;;;;;;5051341;28;20374;-57
2022/01/13 11:02:30;;;;;;;15.50;11.93;;;;;;;;;;5052049;28;20490;-57
2022/01/13 11:05:01;;;;;;;13.10;10.33;;;;;;;;;;5051811;28;20056;-57
2022/01/13 11:07:27;;;;;;;16.00;11.27;;;;;;;;;;5052387;28;20116;-55
2022/01/13 11:09:58;;;;;;;14.57;11.43;;;;;;;;;;5051498;28;20179;-54
2022/01/13 11:12:32;;;;;;;14.63;12.40;;;;;;;;;;5051220;28;20126;-55
2022/01/13 11:15:03;;;;;;;13.83;10.50;;;;;;;;;;5051941;28;20440;-57
2022/01/13 11:17:29;;;;;;;13.17;11.10;;;;;;;;;;5051900;28;20021;-56
2022/01/13 11:19:56;;;;;;;12.87;10.47;;;;;;;;;;5051398;28;20363;-56
2022/01/13 11:22:22;;;;;;;12.80;11.27;;;;;;;;;;5052049;28;20029;-55
2022/01/13 11:24:48;;;;;;;21.87;14.10;;;;;;;;;;5051984;28;20044;-56
2022/01/13 11:27:17;;;;;;;19.97;12.07;;;;;;;;;;5051599;28;20032;-55
2022/01/13 11:29:45;;;;;;;15.77;13.93;;;;;;;;;;5051078;28;20118;-57
2022/01/13 11:32:11;;;;;;;18.10;13.60;;;;;;;;;;5051955;28;20032;-54
2022/01/13 11:34:37;;;;;;;16.30;12.03;;;;;;;;;;5052095;28;20076;-56
2022/01/13 11:37:03;;;;;;;19.57;13.83;;;;;;;;;;5051726;28;20421;-55
2022/01/13 11:39:39;;;;;;;16.97;14.43;;;;;;;;;;5051274;28;20116;-56
2022/01/13 11:42:10;;;;;;;15.90;13.63;;;;;;;;;;5051207;28;20037;-56
2022/01/13 11:44:37;;;;;;;17.08;12.73;;;;;;;;;;5054416;28;20456;-54
2022/01/13 11:47:08;;;;;;;16.73;13.67;;;;;;;;;;5055773;28;20027;-56
2022/01/13 11:49:56;;;;;;;15.10;11.87;;;;;;;;;;5055218;28;20071;-56
2022/01/13 11:52:43;;;;;;;15.47;11.80;;;;;;;;;;5055591;28;20090;-52
2022/01/13 11:55:21;;;;;;;19.43;12.50;;;;;;;;;;5055743;28;20036;-56
2022/01/13 11:57:48;;;;;;;15.67;12.80;;;;;;;;;;5054322;28;20467;-53
2022/01/13 12:00:17;;;;;;;15.07;12.93;;;;;;;;;;5055463;28;20037;-56
2022/01/13 12:02:43;;;;;;;14.27;11.67;;;;;;;;;;5042543;28;20112;-57
2022/01/13 12:05:16;;;;;;;16.97;14.30;;;;;;;;;;5035239;28;20471;-55
2022/01/13 12:07:44;;;;;;;15.37;11.40;;;;;;;;;;5035081;28;20498;-56
2022/01/13 12:10:10;;;;;;;17.63;13.50;;;;;;;;;;5035125;28;20037;-54
2022/01/13 12:12:40;;;;;;;18.67;13.27;;;;;;;;;;5054914;28;20033;-53
2022/01/13 12:15:15;;;;;;;16.97;12.17;;;;;;;;;;5055201;28;20079;-56
2022/01/13 12:17:49;;;;;;;17.37;11.33;;;;;;;;;;5054713;28;20033;-57
2022/01/13 12:20:21;;;;;;;18.33;12.70;;;;;;;;;;5055419;28;20045;-54
2022/01/13 12:22:57;;;;;;;19.07;13.03;;;;;;;;;;5055054;28;20036;-56
2022/01/13 12:25:31;;;;;;;12.93;11.57;;;;;;;;;;5054840;28;20036;-53
2022/01/13 12:27:58;;;;;;;15.93;12.13;;;;;;;;;;5054063;28;20394;-56
2022/01/13 12:30:26;;;;;;;15.83;12.97;;;;;;;;;;5054801;28;20432;-55
2022/01/13 12:32:57;;;;;;;13.47;11.73;;;;;;;;;;5054918;28;20104;-55
2022/01/13 12:35:22;;;;;;;14.95;11.73;;;;;;;;;;5054826;28;20029;-55
2022/01/13 12:38:05;;;;;;;12.80;10.47;;;;;;;;;;5053931;28;20390;-53
2022/01/13 12:40:34;;;;;;;14.53;12.97;;;;;;;;;;5054600;28;20047;-52
2022/01/13 12:43:13;;;;;;;14.33;10.27;;;;;;;;;;5054302;28;20063;-55
2022/01/13 12:45:39;;;;;;;13.70;11.53;;;;;;;;;;5054795;28;20025;-54
2022/01/13 12:48:06;;;;;;;12.50;10.57;;;;;;;;;;5053801;28;20025;-55
2022/01/13 12:50:35;;;;;;;16.87;11.40;;;;;;;;;;5054567;28;20120;-56
2022/01/13 12:53:08;;;;;;;16.07;11.63;;;;;;;;;;5053878;28;20029;-54
2022/01/13 12:55:35;;;;;;;14.13;10.13;;;;;;;;;;5054300;28;20029;-56
2022/01/13 12:58:01;;;;;;;15.87;11.00;;;;;;;;;;5053838;28;20037;-56
2022/01/13 13:00:27;;;;;;;11.07;7.60;;;;;;;;;;5054451;28;20029;-54
2022/01/13 13:02:55;;;;;;;13.37;8.90;;;;;;;;;;5039879;28;20538;-52
2022/01/13 13:05:38;;;;;;;10.40;7.53;;;;;;;;;;5034139;28;20041;-56
2022/01/13 13:08:05;;;;;;;9.60;6.40;;;;;;;;;;5039825;28;20040;-52
2022/01/13 13:10:31;;;;;;;10.83;8.63;;;;;;;;;;5053720;28;20102;-53
2022/01/13 13:12:58;;;;;;;12.07;8.33;;;;;;;;;;5053648;28;20028;-56
2022/01/13 13:17:51;;;;;;;12.50;10.07;;;;;;;;;;5053211;28;20040;-57
2022/01/13 13:20:27;;;;;;;12.77;9.90;;;;;;;;;;5053437;28;20029;-55
2022/01/13 13:22:56;;;;;;;11.57;8.37;;;;;;;;;;5053772;28;20044;-53
2022/01/13 13:25:28;;;;;;;12.80;10.53;;;;;;;;;;5053698;28;20530;-56
2022/01/13 13:27:54;;;;;;;10.27;8.67;;;;;;;;;;5053208;28;20025;-56
2022/01/13 13:30:20;;;;;;;12.67;10.60;;;;;;;;;;5053747;28;20025;-56
2022/01/13 13:32:50;;;;;;;15.03;10.10;;;;;;;;;;5053581;28;20033;-51
2022/01/13 13:35:16;;;;;;;11.30;9.45;;;;;;;;;;5053754;28;20029;-56
2022/01/13 13:37:46;;;;;;;13.97;10.17;;;;;;;;;;5053230;28;20083;-54
2022/01/13 13:40:22;;;;;;;14.40;10.83;;;;;;;;;;5053242;28;20037;-56
2022/01/13 13:43:06;;;;;;;12.67;10.47;;;;;;;;;;5053397;28;20079;-56
2022/01/13 13:45:32;;;;;;;9.10;7.90;;;;;;;;;;5053167;28;20041;-54
2022/01/13 13:47:59;;;;;;;12.33;9.50;;;;;;;;;;5052740;28;20459;-52
2022/01/13 13:50:25;;;;;;;14.20;10.37;;;;;;;;;;5053501;28;20025;-48
2022/01/13 13:53:24;;;;;;;11.38;9.50;;;;;;;;;;5053131;28;20036;-51
2022/01/13 13:56:16;;;;;;;12.05;10.45;;;;;;;;;;5051727;28;20045;-51
2022/01/13 13:58:42;;;;;;;13.33;10.67;;;;;;;;;;5052187;28;20426;-50
2022/01/13 14:01:08;;;;;;;19.57;10.63;;;;;;;;;;5052850;28;20025;-51
2022/01/13 14:03:38;;;;;;;14.40;9.83;;;;;;;;;;5033238;28;20029;-50
2022/01/13 14:06:04;;;;;;;15.35;11.40;;;;;;;;;;5035351;28;20021;-54
2022/01/13 14:08:30;;;;;;;13.43;10.65;;;;;;;;;;5052200;28;20025;-51
2022/01/13 14:11:08;;;;;;;15.05;9.27;;;;;;;;;;5052578;28;20082;-50
2022/01/13 14:13:35;;;;;;;12.13;9.73;;;;;;;;;;5052728;28;20100;-50
2022/01/13 14:16:01;;;;;;;16.35;10.43;;;;;;;;;;5052642;28;20426;-54
2022/01/13 14:18:26;;;;;;;10.73;9.57;;;;;;;;;;5051961;28;20124;-50
2022/01/13 14:20:52;;;;;;;11.70;7.97;;;;;;;;;;5052559;28;20426;-54
2022/01/13 14:23:19;;;;;;;15.52;11.40;;;;;;;;;;5052881;28;20448;-55
2022/01/13 14:25:49;;;;;;;15.10;10.97;;;;;;;;;;5052923;28;20347;-53
2022/01/13 14:28:22;;;;;;;12.15;9.77;;;;;;;;;;5052138;28;20025;-55
2022/01/13 14:30:48;;;;;;;15.43;11.48;;;;;;;;;;5052502;28;20055;-51
2022/01/13 14:33:18;;;;;;;16.80;11.57;;;;;;;;;;5052509;28;20028;-53
2022/01/13 14:35:46;;;;;;;15.45;11.35;;;;;;;;;;5052325;28;20099;-52
2022/01/13 14:38:13;;;;;;;14.43;10.97;;;;;;;;;;5052304;28;20371;-53
2022/01/13 14:40:56;;;;;;;17.33;11.90;;;;;;;;;;5052418;28;20029;-53
2022/01/13 14:43:22;;;;;;;13.73;11.83;;;;;;;;;;5052410;28;20032;-56
2022/01/13 14:46:03;;;;;;;13.47;10.53;;;;;;;;;;5052082;28;20120;-54